createdAt,value
2019-05-19T00:03:58.013Z,11.60
2019-05-19T00:08:09.819Z,11.70
2019-05-19T00:12:21.765Z,11.80
2019-05-19T00:16:33.626Z,11.70
2019-05-19T00:20:45.983Z,11.60
2019-05-19T00:24:57.896Z,11.60
2019-05-19T00:29:09.755Z,11.60
2019-05-19T00:33:21.342Z,11.60
2019-05-19T00:37:33.023Z,11.60
2019-05-19T00:41:44.835Z,11.60
2019-05-19T00:45:56.636Z,11.60
2019-05-19T00:50:09.047Z,11.70
2019-05-19T00:54:21.072Z,11.70
2019-05-19T00:58:34.864Z,11.70
2019-05-19T01:02:46.612Z,11.70
2019-05-19T01:06:58.725Z,11.80
2019-05-19T01:11:10.706Z,11.90
2019-05-19T01:15:23.317Z,12.00
2019-05-19T01:19:35.172Z,12.00
2019-05-19T01:23:46.829Z,12.10
2019-05-19T01:27:58.796Z,12.10
2019-05-19T01:32:10.649Z,12.10
2019-05-19T01:36:26.524Z,12.10
2019-05-19T01:40:38.259Z,12.10
2019-05-19T01:44:49.950Z,12.10
2019-05-19T01:49:01.745Z,12.10
2019-05-19T01:53:13.923Z,12.10
2019-05-19T01:57:25.805Z,12.10
2019-05-19T02:01:37.653Z,12.20
2019-05-19T02:05:49.468Z,12.10
2019-05-19T02:10:01.322Z,12.00
2019-05-19T02:14:14.147Z,12.00
2019-05-19T02:18:26.920Z,11.90
2019-05-19T02:22:38.517Z,11.90
2019-05-19T02:26:50.374Z,11.90
2019-05-19T02:31:02.126Z,11.90
2019-05-19T02:35:14.124Z,11.90
2019-05-19T02:39:26.946Z,12.00
2019-05-19T02:43:39.126Z,12.10
2019-05-19T02:47:54.230Z,12.10
2019-05-19T02:52:07.043Z,12.10
2019-05-19T02:56:19.638Z,12.10
2019-05-19T03:00:39.211Z,12.20
2019-05-19T03:04:50.948Z,12.20
2019-05-19T03:09:02.755Z,12.20
2019-05-19T03:13:14.568Z,12.30
2019-05-19T03:17:26.369Z,12.30
2019-05-19T03:21:38.169Z,12.30
2019-05-19T03:25:49.770Z,12.30
2019-05-19T03:30:20.484Z,12.30
2019-05-19T03:34:32.205Z,12.30
2019-05-19T03:38:43.889Z,12.30
2019-05-19T03:42:55.715Z,12.30
2019-05-19T03:47:07.614Z,12.20
2019-05-19T03:51:30.293Z,12.20
2019-05-19T03:55:33.010Z,12.10
2019-05-19T03:59:44.864Z,12.10
2019-05-19T04:03:56.732Z,12.20
2019-05-19T04:08:08.601Z,12.10
2019-05-19T04:12:20.476Z,12.20
2019-05-19T04:16:32.184Z,12.10
2019-05-19T04:20:44.165Z,12.10
2019-05-19T04:24:55.969Z,12.10
2019-05-19T04:29:07.879Z,12.10
2019-05-19T04:33:19.934Z,12.00
2019-05-19T04:37:32.039Z,12.00
2019-05-19T04:41:44.204Z,11.90
2019-05-19T04:45:56.101Z,11.90
2019-05-19T04:50:09.027Z,11.90
2019-05-19T04:54:20.775Z,11.90
2019-05-19T04:58:32.674Z,11.80
2019-05-19T05:02:44.445Z,11.80
2019-05-19T05:06:56.356Z,11.80
2019-05-19T05:11:08.133Z,11.90
2019-05-19T05:15:19.936Z,11.80
2019-05-19T05:19:31.756Z,11.80
2019-05-19T05:23:43.352Z,11.80
2019-05-19T05:27:55.047Z,11.80
2019-05-19T05:32:06.837Z,11.90
2019-05-19T05:36:18.707Z,11.90
2019-05-19T05:40:30.545Z,12.00
2019-05-19T05:44:42.339Z,12.10
2019-05-19T05:48:53.956Z,12.10
2019-05-19T05:53:05.627Z,12.20
2019-05-19T05:57:17.515Z,12.20
2019-05-19T06:01:29.494Z,12.20
2019-05-19T06:05:41.356Z,12.30
2019-05-19T06:09:53.204Z,12.30
2019-05-19T06:14:05.236Z,12.40
2019-05-19T06:18:17.173Z,12.30
2019-05-19T06:22:28.788Z,12.30
2019-05-19T06:26:40.569Z,12.20
2019-05-19T06:30:52.389Z,12.30
2019-05-19T06:35:04.158Z,12.40
2019-05-19T06:39:16.117Z,12.30
2019-05-19T06:43:28.085Z,12.40
2019-05-19T06:47:40.787Z,12.50
2019-05-19T06:51:52.597Z,12.60
2019-05-19T06:56:04.462Z,12.60
2019-05-19T07:00:16.610Z,12.50
2019-05-19T07:04:28.405Z,12.50
2019-05-19T07:08:41.159Z,12.50
2019-05-19T07:12:52.881Z,12.50
2019-05-19T07:17:04.843Z,12.70
2019-05-19T07:21:16.737Z,12.80
2019-05-19T07:25:28.545Z,12.90
2019-05-19T07:29:40.343Z,13.00
2019-05-19T07:33:52.149Z,13.10
2019-05-19T07:38:07.416Z,13.20
2019-05-19T07:42:19.198Z,13.40
2019-05-19T07:46:30.925Z,13.50
2019-05-19T07:50:43.560Z,13.50
2019-05-19T07:54:55.357Z,13.50
2019-05-19T07:59:08.021Z,13.60
2019-05-19T08:03:19.976Z,13.60
2019-05-19T08:07:31.799Z,13.60
2019-05-19T08:11:43.581Z,13.60
2019-05-19T08:15:55.275Z,13.60
2019-05-19T08:20:07.510Z,13.60
2019-05-19T08:24:19.105Z,13.70
2019-05-19T08:28:32.018Z,14.00
2019-05-19T08:32:43.814Z,14.30
2019-05-19T08:36:55.631Z,14.60
2019-05-19T08:41:07.321Z,14.90
2019-05-19T08:45:19.289Z,15.20
2019-05-19T08:49:31.149Z,15.10
2019-05-19T08:53:43.028Z,15.20
2019-05-19T08:57:55.306Z,15.10
2019-05-19T09:02:07.256Z,15.30
2019-05-19T09:06:19.449Z,15.20
2019-05-19T09:10:31.356Z,15.10
2019-05-19T09:14:43.148Z,15.10
2019-05-19T09:18:55.014Z,15.00
2019-05-19T09:23:06.877Z,15.40
2019-05-19T09:27:18.749Z,15.90
2019-05-19T09:31:30.727Z,16.10
2019-05-19T09:35:43.492Z,16.50
2019-05-19T09:39:55.289Z,16.70
2019-05-19T09:44:06.992Z,16.80
2019-05-19T09:48:18.824Z,16.50
2019-05-19T09:52:30.592Z,16.00
2019-05-19T09:56:42.580Z,16.00
2019-05-19T10:00:54.398Z,16.10
2019-05-19T10:05:07.408Z,16.20
2019-05-19T10:09:51.348Z,16.20
2019-05-19T10:14:03.194Z,16.30
2019-05-19T10:18:15.081Z,16.60
2019-05-19T10:22:27.094Z,16.70
2019-05-19T10:26:40.011Z,16.70
2019-05-19T10:30:51.641Z,17.00
2019-05-19T10:35:03.424Z,17.50
2019-05-19T10:39:15.215Z,17.70
2019-05-19T10:43:27.022Z,17.80
2019-05-19T10:47:38.838Z,17.80
2019-05-19T10:51:50.484Z,17.90
2019-05-19T10:56:02.133Z,17.80
2019-05-19T11:00:14.712Z,17.80
2019-05-19T11:04:26.437Z,17.60
2019-05-19T11:08:38.247Z,17.50
2019-05-19T11:12:50.140Z,17.50
2019-05-19T11:17:01.939Z,17.10
2019-05-19T11:21:13.750Z,17.60
2019-05-19T11:25:33.598Z,17.70
2019-05-19T11:29:38.993Z,17.40
2019-05-19T11:33:50.601Z,17.30
2019-05-19T11:38:02.381Z,17.30
2019-05-19T11:42:14.173Z,17.70
2019-05-19T11:46:25.982Z,18.00
2019-05-19T11:50:41.895Z,18.40
2019-05-19T11:54:51.100Z,18.90
2019-05-19T11:59:03.037Z,19.20
2019-05-19T12:03:14.930Z,18.80
2019-05-19T12:07:26.721Z,19.20
2019-05-19T12:11:38.690Z,19.10
2019-05-19T12:15:50.533Z,18.20
2019-05-19T12:20:02.341Z,17.90
2019-05-19T12:24:14.141Z,17.70
2019-05-19T12:28:26.008Z,17.70
2019-05-19T12:32:37.655Z,17.50
2019-05-19T12:36:49.343Z,17.60
2019-05-19T12:41:01.133Z,18.20
2019-05-19T12:45:13.548Z,18.70
2019-05-19T12:49:25.357Z,18.90
2019-05-19T12:53:37.043Z,18.80
2019-05-19T12:57:48.836Z,18.70
2019-05-19T13:02:00.540Z,18.20
2019-05-19T13:06:12.350Z,17.90
2019-05-19T13:10:24.150Z,17.90
2019-05-19T13:14:35.967Z,18.10
2019-05-19T13:18:47.780Z,18.60
2019-05-19T13:22:59.368Z,18.80
2019-05-19T13:27:11.051Z,18.40
2019-05-19T13:31:22.905Z,18.00
2019-05-19T13:35:34.756Z,17.90
2019-05-19T13:39:46.549Z,17.80
2019-05-19T13:43:59.743Z,17.80
2019-05-19T13:48:11.610Z,18.50
2019-05-19T13:52:23.509Z,19.20
2019-05-19T13:56:35.288Z,18.70
2019-05-19T14:00:47.219Z,18.80
2019-05-19T14:04:59.428Z,19.30
2019-05-19T14:09:11.212Z,19.50
2019-05-19T14:13:23.021Z,19.10
2019-05-19T14:17:35.943Z,19.00
2019-05-19T14:21:47.647Z,19.50
2019-05-19T14:25:59.497Z,19.50
2019-05-19T14:30:11.745Z,18.70
2019-05-19T14:34:23.713Z,18.20
2019-05-19T14:38:35.663Z,17.90
2019-05-19T14:42:54.372Z,17.90
2019-05-19T14:47:06.105Z,18.30
2019-05-19T14:51:17.928Z,18.60
2019-05-19T14:55:29.825Z,18.20
2019-05-19T14:59:41.781Z,18.00
2019-05-19T15:03:53.683Z,17.80
2019-05-19T15:08:06.362Z,17.70
2019-05-19T15:12:18.258Z,17.50
2019-05-19T15:16:30.060Z,17.50
2019-05-19T15:20:41.881Z,17.50
2019-05-19T15:24:53.681Z,17.50
2019-05-19T15:29:05.554Z,17.60
2019-05-19T15:33:19.780Z,17.80
2019-05-19T15:37:31.625Z,17.90
2019-05-19T15:41:43.434Z,18.20
2019-05-19T15:45:55.036Z,18.30
2019-05-19T15:50:08.545Z,18.40
2019-05-19T15:54:20.377Z,18.60
2019-05-19T15:58:32.274Z,18.50
2019-05-19T16:02:44.178Z,18.30
2019-05-19T16:06:56.274Z,18.10
2019-05-19T16:11:09.421Z,18.30
2019-05-19T16:15:21.245Z,18.40
2019-05-19T16:19:32.892Z,18.30
2019-05-19T16:23:44.708Z,18.00
2019-05-19T16:27:56.521Z,17.80
2019-05-19T16:32:08.314Z,18.00
2019-05-19T16:36:20.161Z,18.50
2019-05-19T16:40:31.802Z,18.90
2019-05-19T16:44:43.616Z,19.10
2019-05-19T16:48:55.409Z,19.30
2019-05-19T16:53:07.471Z,19.20
2019-05-19T16:57:19.324Z,19.10
2019-05-19T17:01:31.329Z,18.80
2019-05-19T17:05:43.137Z,18.50
2019-05-19T17:09:54.807Z,18.20
2019-05-19T17:14:06.634Z,17.70
2019-05-19T17:18:18.437Z,17.40
2019-05-19T17:22:30.236Z,17.30
2019-05-19T17:26:42.183Z,17.50
2019-05-19T17:30:54.049Z,18.00
2019-05-19T17:35:06.063Z,18.40
2019-05-19T17:39:17.937Z,18.50
2019-05-19T17:43:29.637Z,18.40
2019-05-19T17:47:41.656Z,18.50
2019-05-19T17:51:53.696Z,18.40
2019-05-19T17:56:05.997Z,18.30
2019-05-19T18:00:22.289Z,18.30
2019-05-19T18:04:34.804Z,18.20
2019-05-19T18:08:46.612Z,18.00
2019-05-19T18:12:58.540Z,17.70
2019-05-19T18:17:10.320Z,17.50
2019-05-19T18:21:22.105Z,17.40
2019-05-19T18:25:34.070Z,17.30
2019-05-19T18:29:46.312Z,17.20
2019-05-19T18:33:58.320Z,17.10
2019-05-19T18:38:10.324Z,16.90
2019-05-19T18:42:22.125Z,16.80
2019-05-19T18:46:33.994Z,16.50
2019-05-19T18:50:45.656Z,16.20
2019-05-19T18:54:57.328Z,16.00
2019-05-19T18:59:09.129Z,15.80
2019-05-19T19:03:21.196Z,15.70
2019-05-19T19:07:53.724Z,15.50
2019-05-19T19:12:05.532Z,15.40
2019-05-19T19:16:17.377Z,15.20
2019-05-19T19:20:29.230Z,15.20
2019-05-19T19:24:41.048Z,15.10
2019-05-19T19:28:53.864Z,15.00
2019-05-19T19:33:05.858Z,14.70
2019-05-19T19:37:17.656Z,14.80
2019-05-19T19:41:29.463Z,14.90
2019-05-19T19:45:41.337Z,14.90
2019-05-19T19:49:53.637Z,14.90
2019-05-19T19:54:05.472Z,14.80
2019-05-19T19:58:18.236Z,14.80
2019-05-19T20:02:30.192Z,14.70
2019-05-19T20:06:42.476Z,14.60
2019-05-19T20:10:54.286Z,14.60
2019-05-19T20:15:06.465Z,14.50
2019-05-19T20:19:18.383Z,14.40
2019-05-19T20:23:30.236Z,14.20
2019-05-19T20:27:42.138Z,14.20
2019-05-19T20:31:54.045Z,14.00
2019-05-19T20:36:05.945Z,13.80
2019-05-19T20:40:18.245Z,13.70
2019-05-19T20:44:30.057Z,13.80
2019-05-19T20:48:41.933Z,13.60
2019-05-19T20:52:53.578Z,13.70
2019-05-19T20:57:05.365Z,13.50
2019-05-19T21:01:17.272Z,13.50
2019-05-19T21:05:29.207Z,13.60
2019-05-19T21:09:41.085Z,13.50
2019-05-19T21:13:53.596Z,13.50
2019-05-19T21:18:05.420Z,13.40
2019-05-19T21:22:17.254Z,13.40
2019-05-19T21:26:29.288Z,13.30
2019-05-19T21:30:41.104Z,13.40
2019-05-19T21:34:53.001Z,13.30
2019-05-19T21:39:06.497Z,13.30
2019-05-19T21:43:19.343Z,13.30
2019-05-19T21:47:31.176Z,13.30
2019-05-19T21:51:43.025Z,13.30
2019-05-19T21:55:54.781Z,13.20
2019-05-19T22:00:08.879Z,13.00
2019-05-19T22:04:20.785Z,13.00
2019-05-19T22:08:32.695Z,12.90
2019-05-19T22:12:44.649Z,12.70
2019-05-19T22:16:56.444Z,12.60
2019-05-19T22:21:08.095Z,12.70
2019-05-19T22:25:19.824Z,12.70
2019-05-19T22:29:31.648Z,12.60
2019-05-19T22:33:43.444Z,12.60
2019-05-19T22:37:55.253Z,12.60
2019-05-19T22:42:07.049Z,12.50
2019-05-19T22:46:18.859Z,12.30
2019-05-19T22:50:30.457Z,12.10
2019-05-19T22:54:42.196Z,12.00
2019-05-19T22:58:55.961Z,11.90
2019-05-19T23:03:07.844Z,11.90
2019-05-19T23:07:19.756Z,12.00
2019-05-19T23:11:31.600Z,12.00
2019-05-19T23:15:43.396Z,12.00
2019-05-19T23:19:55.222Z,12.00
2019-05-19T23:24:07.198Z,12.00
2019-05-19T23:28:18.909Z,12.00
2019-05-19T23:32:30.602Z,11.90
2019-05-19T23:36:42.408Z,11.90
2019-05-19T23:40:54.411Z,11.90
2019-05-19T23:45:06.526Z,11.90
2019-05-19T23:49:18.337Z,11.70
2019-05-19T23:53:30.121Z,11.60
2019-05-19T23:57:42.002Z,11.50
